createdAt,value
2023-02-27T08:41:39.671Z,98646.13
2023-02-27T08:44:07.521Z,98632.63
2023-02-27T08:46:34.893Z,98642.91
2023-02-27T08:49:02.244Z,98645.91
2023-02-27T08:51:30.004Z,98653.06
2023-02-27T08:53:59.113Z,98652.47
2023-02-27T08:56:28.363Z,98656.88
2023-02-27T08:58:56.412Z,98653.94
2023-02-27T09:01:26.160Z,98658.34
2023-02-27T09:03:53.807Z,98669.25
2023-02-27T09:06:21.128Z,98668.81
2023-02-27T09:08:48.429Z,98674.47
2023-02-27T09:11:15.764Z,98667.53
2023-02-27T09:13:43.031Z,98675.72
2023-02-27T09:16:10.414Z,98677.00
2023-02-27T09:18:37.751Z,98677.28
2023-02-27T09:21:05.229Z,98672.53
2023-02-27T09:23:32.583Z,98675.63
2023-02-27T09:25:59.875Z,98683.19
2023-02-27T09:28:27.370Z,98682.50
2023-02-27T09:30:54.714Z,98688.88
2023-02-27T09:33:22.011Z,98690.34
2023-02-27T09:35:49.385Z,98691.78
2023-02-27T09:38:16.740Z,98680.00
2023-02-27T09:40:50.293Z,98704.75
2023-02-27T09:43:50.691Z,98688.31
2023-02-27T09:46:23.358Z,98709.97
2023-02-27T09:49:01.940Z,98721.50
2023-02-27T09:51:29.847Z,98711.13
2023-02-27T09:54:01.715Z,98723.53
2023-02-27T09:56:46.480Z,98718.28
2023-02-27T10:00:24.416Z,98739.31
2023-02-27T10:03:19.801Z,98737.66
2023-02-27T10:06:33.889Z,98742.53
2023-02-27T10:09:34.814Z,98745.47
2023-02-27T10:12:45.812Z,98745.28
2023-02-27T10:15:38.944Z,98749.88
2023-02-27T10:18:31.277Z,98757.94
2023-02-27T10:21:10.711Z,98763.06
2023-02-27T10:24:18.123Z,98757.03
2023-02-27T10:26:46.225Z,98753.25
2023-02-27T10:29:41.632Z,98775.41
2023-02-27T10:32:35.674Z,98772.38
2023-02-27T10:35:34.837Z,98779.31
2023-02-27T10:38:48.084Z,98782.16
2023-02-27T10:41:19.136Z,98776.50
2023-02-27T10:43:46.859Z,98792.22
2023-02-27T10:46:31.039Z,98793.34
2023-02-27T10:49:05.524Z,98792.72
2023-02-27T10:51:38.335Z,98785.66
2023-02-27T10:54:23.653Z,98790.50
2023-02-27T10:57:01.092Z,98795.34
2023-02-27T10:59:38.001Z,98796.16
2023-02-27T11:02:43.651Z,98798.56
2023-02-27T11:05:36.982Z,98803.50
2023-02-27T11:08:32.172Z,98795.97
2023-02-27T11:11:11.440Z,98789.91
2023-02-27T11:13:44.951Z,98803.41
2023-02-27T11:16:23.637Z,98781.47
2023-02-27T11:18:54.359Z,98794.88
2023-02-27T11:21:30.125Z,98793.75
2023-02-27T11:24:07.741Z,98798.69
2023-02-27T11:26:41.200Z,98807.66
2023-02-27T11:29:18.964Z,98802.00
2023-02-27T11:31:57.256Z,98807.75
2023-02-27T11:34:38.354Z,98781.06
2023-02-27T11:37:36.363Z,98807.44
2023-02-27T11:40:09.909Z,98801.72
2023-02-27T11:42:51.634Z,98806.06
2023-02-27T11:46:05.090Z,98819.72
2023-02-27T11:48:39.833Z,98804.94
2023-02-27T11:51:52.105Z,98815.63
2023-02-27T11:54:54.463Z,98815.72
2023-02-27T11:57:38.178Z,98818.50
2023-02-27T12:00:15.995Z,98815.63
2023-02-27T12:03:32.619Z,98822.53
2023-02-27T12:06:20.543Z,98825.84
2023-02-27T12:09:07.574Z,98816.91
2023-02-27T12:11:45.930Z,98824.97
2023-02-27T12:14:50.916Z,98825.38
2023-02-27T12:17:40.726Z,98821.44
2023-02-27T12:20:42.601Z,98829.44
2023-02-27T12:24:06.907Z,98825.06
2023-02-27T12:26:46.739Z,98824.59
2023-02-27T12:29:39.868Z,98822.56
2023-02-27T12:33:20.141Z,98818.03
2023-02-27T12:36:03.922Z,98810.06
2023-02-27T12:38:32.698Z,98826.72
2023-02-27T12:41:36.987Z,98819.94
2023-02-27T12:44:44.949Z,98824.66
2023-02-27T12:47:54.644Z,98807.72
2023-02-27T12:50:25.923Z,98811.44
2023-02-27T12:53:34.247Z,98803.69
2023-02-27T12:56:24.535Z,98817.66
2023-02-27T12:59:41.959Z,98818.50
2023-02-27T13:02:50.227Z,98807.19
2023-02-27T13:06:01.669Z,98822.41
2023-02-27T13:08:57.639Z,98814.81
2023-02-27T13:12:04.692Z,98815.44
2023-02-27T13:15:24.397Z,98823.69
2023-02-27T13:18:36.625Z,98825.19
2023-02-27T13:21:48.180Z,98823.06
2023-02-27T13:24:29.761Z,98817.19
2023-02-27T13:27:35.934Z,98805.69
2023-02-27T13:30:28.125Z,98815.56
2023-02-27T13:33:35.157Z,98802.50
2023-02-27T13:36:39.791Z,98806.72
2023-02-27T13:39:56.691Z,98798.91
2023-02-27T13:42:26.946Z,98805.84
2023-02-27T13:45:05.691Z,98791.63
2023-02-27T13:47:50.102Z,98793.44
2023-02-27T13:50:23.123Z,98794.47
2023-02-27T13:52:50.843Z,98797.78
2023-02-27T13:55:31.223Z,98791.31
2023-02-27T13:58:02.076Z,98791.19
2023-02-27T14:00:35.554Z,98796.13
2023-02-27T14:03:25.682Z,98786.47
2023-02-27T14:06:00.904Z,98801.41
2023-02-27T14:08:46.491Z,98794.94
2023-02-27T14:11:28.718Z,98794.06
2023-02-27T14:13:57.624Z,98805.59
2023-02-27T14:16:40.062Z,98796.81
2023-02-27T14:19:16.094Z,98794.81
2023-02-27T14:22:24.589Z,98810.41
2023-02-27T14:25:22.034Z,98796.78
2023-02-27T14:27:57.401Z,98803.53
2023-02-27T14:30:45.778Z,98808.56
2023-02-27T14:33:46.405Z,98815.03
2023-02-27T14:36:30.810Z,98814.66
2023-02-27T14:39:02.212Z,98807.53
2023-02-27T14:41:56.778Z,98822.56
2023-02-27T14:44:38.028Z,98801.91
2023-02-27T14:47:06.955Z,98796.25
2023-02-27T14:49:36.131Z,98805.81
2023-02-27T14:52:31.714Z,98792.84
2023-02-27T14:55:31.388Z,98816.16
2023-02-27T14:58:07.484Z,98807.97
2023-02-27T15:00:50.527Z,98791.88
2023-02-27T15:03:39.887Z,98804.50
2023-02-27T15:06:46.266Z,98808.81
2023-02-27T15:09:24.831Z,98813.59
2023-02-27T15:12:03.850Z,98815.25
2023-02-27T15:14:40.036Z,98804.97
2023-02-27T15:17:26.284Z,98798.91
2023-02-27T15:20:04.047Z,98797.19
2023-02-27T15:22:39.934Z,98798.31
2023-02-27T15:25:38.891Z,98806.78
2023-02-27T15:28:27.665Z,98818.91
2023-02-27T15:30:56.734Z,98820.19
2023-02-27T15:33:33.372Z,98807.63
2023-02-27T15:36:01.616Z,98824.06
2023-02-27T15:38:38.009Z,98829.28
2023-02-27T15:41:05.589Z,98822.44
2023-02-27T15:43:33.270Z,98821.91
2023-02-27T15:46:01.007Z,98831.16
2023-02-27T15:48:29.904Z,98834.84
2023-02-27T15:51:04.397Z,98822.84
2023-02-27T15:53:34.005Z,98826.75
2023-02-27T15:56:12.094Z,98829.28
2023-02-27T15:58:53.866Z,98832.97
2023-02-27T16:01:30.828Z,98827.72
2023-02-27T16:04:20.675Z,98837.50
2023-02-27T16:07:06.113Z,98840.06
2023-02-27T16:09:38.431Z,98835.19
2023-02-27T16:12:33.399Z,98844.50
2023-02-27T16:15:38.310Z,98847.91
2023-02-27T16:18:08.598Z,98856.03
2023-02-27T16:20:55.661Z,98853.25
2023-02-27T16:23:32.003Z,98850.22
2023-02-27T16:26:27.473Z,98861.31
2023-02-27T16:29:03.912Z,98864.88
2023-02-27T16:31:45.880Z,98869.09
2023-02-27T16:34:45.390Z,98867.53
2023-02-27T16:37:37.004Z,98883.16
2023-02-27T16:40:23.374Z,98868.34
2023-02-27T16:42:52.816Z,98873.50
2023-02-27T16:45:31.221Z,98877.09
2023-02-27T16:48:01.129Z,98880.88
2023-02-27T16:50:42.999Z,98886.75
2023-02-27T16:53:10.383Z,98895.13
2023-02-27T16:55:43.411Z,98898.25
2023-02-27T16:58:16.414Z,98894.06
2023-02-27T17:00:44.482Z,98904.44
2023-02-27T17:03:11.790Z,98894.69
2023-02-27T17:05:39.591Z,98906.47
2023-02-27T17:08:07.183Z,98904.75
2023-02-27T17:10:34.618Z,98919.91
2023-02-27T17:13:01.895Z,98918.72
2023-02-27T17:15:29.193Z,98904.38
2023-02-27T17:17:56.509Z,98928.44
2023-02-27T17:20:26.050Z,98927.81
2023-02-27T17:22:53.397Z,98921.84
2023-02-27T17:25:20.742Z,98935.56
2023-02-27T17:27:48.254Z,98941.13
2023-02-27T17:30:16.578Z,98934.47
2023-02-27T17:32:44.026Z,98945.44
2023-02-27T17:35:11.576Z,98941.53
2023-02-27T17:37:38.959Z,98940.72
2023-02-27T17:40:08.261Z,98943.34
2023-02-27T17:42:39.918Z,98947.69
2023-02-27T17:45:09.355Z,98945.66
2023-02-27T17:47:37.507Z,98949.81
2023-02-27T17:50:06.048Z,98951.50
2023-02-27T17:52:37.452Z,98955.47
2023-02-27T17:55:08.608Z,98955.16
2023-02-27T17:57:39.067Z,98966.94
2023-02-27T18:00:14.331Z,98970.88
2023-02-27T18:02:45.350Z,98978.84
2023-02-27T18:05:12.813Z,98986.13
2023-02-27T18:07:40.525Z,98976.00
2023-02-27T18:10:10.165Z,98977.16
2023-02-27T18:12:38.474Z,98983.19
2023-02-27T18:15:06.911Z,98989.13
2023-02-27T18:17:34.396Z,98986.72
2023-02-27T18:20:01.829Z,98995.69
2023-02-27T18:22:30.009Z,99002.06
2023-02-27T18:24:58.704Z,98998.19
2023-02-27T18:27:28.000Z,98994.97
2023-02-27T18:29:57.590Z,98998.09
2023-02-27T18:32:25.288Z,99005.28
2023-02-27T18:34:53.524Z,98992.88
2023-02-27T18:37:20.866Z,99002.47
2023-02-27T18:39:48.190Z,98997.22
2023-02-27T18:42:15.505Z,98995.59
2023-02-27T18:44:42.863Z,99006.50
2023-02-27T18:47:12.059Z,99007.69
2023-02-27T18:49:39.493Z,99002.84
2023-02-27T18:52:09.193Z,99005.28
2023-02-27T18:54:37.741Z,99007.72
2023-02-27T18:57:06.050Z,98998.03
2023-02-27T18:59:33.480Z,98999.13
2023-02-27T19:02:01.269Z,98993.19
2023-02-27T19:04:33.599Z,98999.44
2023-02-27T19:07:00.923Z,98993.78
2023-02-27T19:09:32.733Z,99005.19
2023-02-27T19:12:00.855Z,98988.16
2023-02-27T19:14:28.224Z,98999.13
2023-02-27T19:16:56.892Z,98992.75
2023-02-27T19:19:28.126Z,98990.53
2023-02-27T19:21:56.199Z,98994.66
2023-02-27T19:24:24.608Z,98990.41
2023-02-27T19:26:53.507Z,98989.09
2023-02-27T19:29:21.375Z,98991.84
2023-02-27T19:31:48.758Z,98991.53
2023-02-27T19:34:16.433Z,98992.63
2023-02-27T19:36:43.750Z,98997.47
2023-02-27T19:39:11.778Z,98992.50
2023-02-27T19:41:39.150Z,98985.56
2023-02-27T19:44:07.678Z,98991.47
2023-02-27T19:46:35.663Z,98992.63
2023-02-27T19:49:06.038Z,98989.13
2023-02-27T19:51:33.849Z,98993.47
2023-02-27T19:54:01.234Z,98987.59
2023-02-27T19:56:29.858Z,98981.41
2023-02-27T19:58:57.835Z,98985.78
2023-02-27T20:01:36.243Z,98990.03
2023-02-27T20:04:04.382Z,98992.56
2023-02-27T20:06:42.294Z,98984.88
2023-02-27T20:09:14.504Z,98984.69
2023-02-27T20:11:45.048Z,98980.25
2023-02-27T20:14:14.883Z,98983.38
2023-02-27T20:16:42.926Z,98982.38
2023-02-27T20:19:17.941Z,98980.88
2023-02-27T20:21:47.235Z,98980.66
2023-02-27T20:24:15.382Z,98981.28
2023-02-27T20:26:48.312Z,98990.53
2023-02-27T20:29:22.902Z,98983.69
2023-02-27T20:31:53.429Z,98983.91
2023-02-27T20:34:26.270Z,98987.50
2023-02-27T20:36:57.148Z,98981.75
2023-02-27T20:39:25.388Z,98984.56
2023-02-27T20:41:52.825Z,98980.81
